sensor_id;sensor_type;location;lat;lon;timestamp;temperature;humidity
8888;DHT22;4480;52.370;9.748;2023-12-14T00:02:16;4.80;99.90
8888;DHT22;4480;52.370;9.748;2023-12-14T00:04:42;4.80;99.90
8888;DHT22;4480;52.370;9.748;2023-12-14T00:07:09;4.80;99.90
8888;DHT22;4480;52.370;9.748;2023-12-14T00:09:39;4.70;99.90
8888;DHT22;4480;52.370;9.748;2023-12-14T00:12:06;4.70;99.90
8888;DHT22;4480;52.370;9.748;2023-12-14T00:14:33;4.70;99.90
8888;DHT22;4480;52.370;9.748;2023-12-14T00:17:01;4.60;99.90
8888;DHT22;4480;52.370;9.748;2023-12-14T00:19:28;4.60;99.90
8888;DHT22;4480;52.370;9.748;2023-12-14T00:21:55;4.60;99.90
8888;DHT22;4480;52.370;9.748;2023-12-14T00:24:21;4.60;99.90
8888;DHT22;4480;52.370;9.748;2023-12-14T00:26:48;4.50;99.90
8888;DHT22;4480;52.370;9.748;2023-12-14T00:29:15;4.40;99.90
8888;DHT22;4480;52.370;9.748;2023-12-14T00:31:42;4.40;99.90
8888;DHT22;4480;52.370;9.748;2023-12-14T00:34:10;4.30;99.90
8888;DHT22;4480;52.370;9.748;2023-12-14T00:36:37;4.30;99.90
8888;DHT22;4480;52.370;9.748;2023-12-14T00:39:04;4.30;99.90
8888;DHT22;4480;52.370;9.748;2023-12-14T00:41:31;4.30;99.90
8888;DHT22;4480;52.370;9.748;2023-12-14T00:43:57;4.30;99.90
8888;DHT22;4480;52.370;9.748;2023-12-14T00:46:24;4.30;99.90
8888;DHT22;4480;52.370;9.748;2023-12-14T00:48:51;4.30;99.90
8888;DHT22;4480;52.370;9.748;2023-12-14T00:51:19;4.30;99.90
8888;DHT22;4480;52.370;9.748;2023-12-14T00:53:46;4.30;99.90
8888;DHT22;4480;52.370;9.748;2023-12-14T00:56:12;4.30;99.90
8888;DHT22;4480;52.370;9.748;2023-12-14T00:58:39;4.30;99.90
8888;DHT22;4480;52.370;9.748;2023-12-14T01:01:06;4.30;99.90
8888;DHT22;4480;52.370;9.748;2023-12-14T01:03:33;4.30;99.90
8888;DHT22;4480;52.370;9.748;2023-12-14T01:05:59;4.30;99.90
8888;DHT22;4480;52.370;9.748;2023-12-14T01:08:27;4.30;99.90
8888;DHT22;4480;52.370;9.748;2023-12-14T01:10:54;4.30;99.90
8888;DHT22;4480;52.370;9.748;2023-12-14T01:13:21;4.30;99.90
8888;DHT22;4480;52.370;9.748;2023-12-14T01:15:48;4.30;99.90
8888;DHT22;4480;52.370;9.748;2023-12-14T01:18:14;4.30;99.90
8888;DHT22;4480;52.370;9.748;2023-12-14T01:20:42;4.30;99.90
8888;DHT22;4480;52.370;9.748;2023-12-14T01:23:09;4.30;99.90
8888;DHT22;4480;52.370;9.748;2023-12-14T01:25:37;4.30;99.90
8888;DHT22;4480;52.370;9.748;2023-12-14T01:28:04;4.30;99.90
8888;DHT22;4480;52.370;9.748;2023-12-14T01:30:31;4.30;99.90
8888;DHT22;4480;52.370;9.748;2023-12-14T01:32:58;4.30;99.90
8888;DHT22;4480;52.370;9.748;2023-12-14T01:35:25;4.30;99.90
8888;DHT22;4480;52.370;9.748;2023-12-14T01:37:52;4.30;99.90
8888;DHT22;4480;52.370;9.748;2023-12-14T01:40:19;4.30;99.90
8888;DHT22;4480;52.370;9.748;2023-12-14T01:42:47;4.30;99.90
8888;DHT22;4480;52.370;9.748;2023-12-14T01:45:14;4.30;99.90
8888;DHT22;4480;52.370;9.748;2023-12-14T01:47:42;4.20;99.90
8888;DHT22;4480;52.370;9.748;2023-12-14T01:50:09;4.20;99.90
8888;DHT22;4480;52.370;9.748;2023-12-14T01:52:35;4.20;99.90
8888;DHT22;4480;52.370;9.748;2023-12-14T01:55:02;4.20;99.90
8888;DHT22;4480;52.370;9.748;2023-12-14T01:57:29;4.10;99.90
8888;DHT22;4480;52.370;9.748;2023-12-14T01:59:57;4.10;99.90
8888;DHT22;4480;52.370;9.748;2023-12-14T02:02:24;4.10;99.90
8888;DHT22;4480;52.370;9.748;2023-12-14T02:04:51;4.10;99.90
8888;DHT22;4480;52.370;9.748;2023-12-14T02:07:18;4.10;99.90
8888;DHT22;4480;52.370;9.748;2023-12-14T02:09:45;4.10;99.90
8888;DHT22;4480;52.370;9.748;2023-12-14T02:12:11;4.00;99.90
8888;DHT22;4480;52.370;9.748;2023-12-14T02:14:38;4.00;99.90
8888;DHT22;4480;52.370;9.748;2023-12-14T02:17:06;4.00;99.90
8888;DHT22;4480;52.370;9.748;2023-12-14T02:19:33;4.00;99.90
8888;DHT22;4480;52.370;9.748;2023-12-14T02:22:00;3.90;99.90
8888;DHT22;4480;52.370;9.748;2023-12-14T02:24:28;3.90;99.90
8888;DHT22;4480;52.370;9.748;2023-12-14T02:26:56;3.90;99.90
8888;DHT22;4480;52.370;9.748;2023-12-14T02:29:23;3.90;99.90
8888;DHT22;4480;52.370;9.748;2023-12-14T02:31:50;3.90;99.90
8888;DHT22;4480;52.370;9.748;2023-12-14T02:34:16;3.90;99.90
8888;DHT22;4480;52.370;9.748;2023-12-14T02:36:44;3.90;99.90
8888;DHT22;4480;52.370;9.748;2023-12-14T02:39:11;3.90;99.90
8888;DHT22;4480;52.370;9.748;2023-12-14T02:41:39;3.90;99.90
8888;DHT22;4480;52.370;9.748;2023-12-14T02:44:06;3.90;99.90
8888;DHT22;4480;52.370;9.748;2023-12-14T02:46:32;4.00;99.90
8888;DHT22;4480;52.370;9.748;2023-12-14T02:48:59;4.00;99.90
8888;DHT22;4480;52.370;9.748;2023-12-14T02:51:26;4.00;99.90
8888;DHT22;4480;52.370;9.748;2023-12-14T02:53:53;4.00;99.90
8888;DHT22;4480;52.370;9.748;2023-12-14T02:56:22;4.00;99.90
8888;DHT22;4480;52.370;9.748;2023-12-14T02:58:51;4.00;99.90
8888;DHT22;4480;52.370;9.748;2023-12-14T03:01:19;4.00;99.90
8888;DHT22;4480;52.370;9.748;2023-12-14T03:03:46;4.00;99.90
8888;DHT22;4480;52.370;9.748;2023-12-14T03:06:13;4.00;99.90
8888;DHT22;4480;52.370;9.748;2023-12-14T03:08:40;4.00;99.90
8888;DHT22;4480;52.370;9.748;2023-12-14T03:11:07;4.00;99.90
8888;DHT22;4480;52.370;9.748;2023-12-14T03:13:33;4.00;99.90
8888;DHT22;4480;52.370;9.748;2023-12-14T03:16:02;4.00;99.90
8888;DHT22;4480;52.370;9.748;2023-12-14T03:18:29;4.00;99.90
8888;DHT22;4480;52.370;9.748;2023-12-14T03:20:55;4.00;99.90
8888;DHT22;4480;52.370;9.748;2023-12-14T03:23:22;4.00;99.90
8888;DHT22;4480;52.370;9.748;2023-12-14T03:25:49;4.00;99.90
8888;DHT22;4480;52.370;9.748;2023-12-14T03:28:16;4.00;99.90
8888;DHT22;4480;52.370;9.748;2023-12-14T03:30:42;4.00;99.90
8888;DHT22;4480;52.370;9.748;2023-12-14T03:33:11;4.00;99.90
8888;DHT22;4480;52.370;9.748;2023-12-14T03:35:37;4.00;99.90
8888;DHT22;4480;52.370;9.748;2023-12-14T03:38:07;4.00;99.90
8888;DHT22;4480;52.370;9.748;2023-12-14T03:40:34;3.90;99.90
8888;DHT22;4480;52.370;9.748;2023-12-14T03:43:01;3.90;99.90
8888;DHT22;4480;52.370;9.748;2023-12-14T03:45:28;3.90;99.90
8888;DHT22;4480;52.370;9.748;2023-12-14T03:47:55;3.90;99.90
8888;DHT22;4480;52.370;9.748;2023-12-14T03:50:23;3.90;99.90
8888;DHT22;4480;52.370;9.748;2023-12-14T03:52:50;3.90;99.90
8888;DHT22;4480;52.370;9.748;2023-12-14T03:55:17;3.90;99.90
8888;DHT22;4480;52.370;9.748;2023-12-14T03:57:43;3.90;99.90
8888;DHT22;4480;52.370;9.748;2023-12-14T04:00:11;3.90;99.90
8888;DHT22;4480;52.370;9.748;2023-12-14T04:02:39;3.90;99.90
8888;DHT22;4480;52.370;9.748;2023-12-14T04:05:06;3.90;99.90
8888;DHT22;4480;52.370;9.748;2023-12-14T04:07:35;3.90;99.90
8888;DHT22;4480;52.370;9.748;2023-12-14T04:12:46;4.00;99.90
8888;DHT22;4480;52.370;9.748;2023-12-14T04:15:12;4.00;99.90
8888;DHT22;4480;52.370;9.748;2023-12-14T04:17:39;4.00;99.90
8888;DHT22;4480;52.370;9.748;2023-12-14T04:20:07;4.00;99.90
8888;DHT22;4480;52.370;9.748;2023-12-14T04:22:34;3.90;99.90
8888;DHT22;4480;52.370;9.748;2023-12-14T04:25:01;3.90;99.90
8888;DHT22;4480;52.370;9.748;2023-12-14T04:27:27;3.90;99.90
8888;DHT22;4480;52.370;9.748;2023-12-14T04:29:56;4.00;99.90
8888;DHT22;4480;52.370;9.748;2023-12-14T04:32:23;4.00;99.90
8888;DHT22;4480;52.370;9.748;2023-12-14T04:34:50;4.00;99.90
8888;DHT22;4480;52.370;9.748;2023-12-14T04:37:17;4.00;99.90
8888;DHT22;4480;52.370;9.748;2023-12-14T04:39:43;4.00;99.90
8888;DHT22;4480;52.370;9.748;2023-12-14T04:42:10;4.00;99.90
8888;DHT22;4480;52.370;9.748;2023-12-14T04:44:37;4.00;99.90
8888;DHT22;4480;52.370;9.748;2023-12-14T04:47:06;3.90;99.90
8888;DHT22;4480;52.370;9.748;2023-12-14T04:49:33;3.90;99.90
8888;DHT22;4480;52.370;9.748;2023-12-14T04:52:00;3.90;99.90
8888;DHT22;4480;52.370;9.748;2023-12-14T04:54:27;3.90;99.90
8888;DHT22;4480;52.370;9.748;2023-12-14T04:56:53;3.90;99.90
8888;DHT22;4480;52.370;9.748;2023-12-14T04:59:20;3.90;99.90
8888;DHT22;4480;52.370;9.748;2023-12-14T05:01:47;3.90;99.90
8888;DHT22;4480;52.370;9.748;2023-12-14T05:04:15;3.90;99.90
8888;DHT22;4480;52.370;9.748;2023-12-14T05:06:42;3.90;99.90
8888;DHT22;4480;52.370;9.748;2023-12-14T05:09:09;3.90;99.90
8888;DHT22;4480;52.370;9.748;2023-12-14T05:11:37;3.90;99.90
8888;DHT22;4480;52.370;9.748;2023-12-14T05:14:05;3.90;99.90
8888;DHT22;4480;52.370;9.748;2023-12-14T05:16:32;3.80;99.90
8888;DHT22;4480;52.370;9.748;2023-12-14T05:18:59;3.80;99.90
8888;DHT22;4480;52.370;9.748;2023-12-14T05:21:27;3.90;99.90
8888;DHT22;4480;52.370;9.748;2023-12-14T05:23:54;3.80;99.90
8888;DHT22;4480;52.370;9.748;2023-12-14T05:26:21;3.80;99.90
8888;DHT22;4480;52.370;9.748;2023-12-14T05:28:47;3.80;99.90
8888;DHT22;4480;52.370;9.748;2023-12-14T05:31:14;3.80;99.90
8888;DHT22;4480;52.370;9.748;2023-12-14T05:33:41;3.80;99.90
8888;DHT22;4480;52.370;9.748;2023-12-14T05:36:08;3.90;99.90
8888;DHT22;4480;52.370;9.748;2023-12-14T05:38:38;3.90;99.90
8888;DHT22;4480;52.370;9.748;2023-12-14T05:41:05;3.90;99.90
8888;DHT22;4480;52.370;9.748;2023-12-14T05:43:32;3.90;99.90
8888;DHT22;4480;52.370;9.748;2023-12-14T05:45:59;3.90;99.90
8888;DHT22;4480;52.370;9.748;2023-12-14T05:48:26;3.90;99.90
8888;DHT22;4480;52.370;9.748;2023-12-14T05:50:54;3.90;99.90
8888;DHT22;4480;52.370;9.748;2023-12-14T05:53:21;3.90;99.90
8888;DHT22;4480;52.370;9.748;2023-12-14T05:55:49;3.90;99.90
8888;DHT22;4480;52.370;9.748;2023-12-14T05:58:15;3.90;99.90
8888;DHT22;4480;52.370;9.748;2023-12-14T06:00:42;3.90;99.90
8888;DHT22;4480;52.370;9.748;2023-12-14T06:03:09;3.90;99.90
8888;DHT22;4480;52.370;9.748;2023-12-14T06:05:36;3.90;99.90
8888;DHT22;4480;52.370;9.748;2023-12-14T06:08:03;3.90;99.90
8888;DHT22;4480;52.370;9.748;2023-12-14T06:10:29;3.90;99.90
8888;DHT22;4480;52.370;9.748;2023-12-14T06:12:59;3.90;99.90
8888;DHT22;4480;52.370;9.748;2023-12-14T06:15:25;3.90;99.90
8888;DHT22;4480;52.370;9.748;2023-12-14T06:17:52;3.90;99.90
8888;DHT22;4480;52.370;9.748;2023-12-14T06:20:19;3.90;99.90
8888;DHT22;4480;52.370;9.748;2023-12-14T06:22:45;3.90;99.90
8888;DHT22;4480;52.370;9.748;2023-12-14T06:25:12;3.90;99.90
8888;DHT22;4480;52.370;9.748;2023-12-14T06:27:39;3.90;99.90
8888;DHT22;4480;52.370;9.748;2023-12-14T06:30:10;4.00;99.90
8888;DHT22;4480;52.370;9.748;2023-12-14T06:32:37;4.00;99.90
8888;DHT22;4480;52.370;9.748;2023-12-14T06:35:05;4.00;99.90
8888;DHT22;4480;52.370;9.748;2023-12-14T06:37:32;4.00;99.90
8888;DHT22;4480;52.370;9.748;2023-12-14T06:39:59;4.00;99.90
8888;DHT22;4480;52.370;9.748;2023-12-14T06:42:27;4.00;99.90
8888;DHT22;4480;52.370;9.748;2023-12-14T06:44:54;4.00;99.90
8888;DHT22;4480;52.370;9.748;2023-12-14T06:47:22;4.00;99.90
8888;DHT22;4480;52.370;9.748;2023-12-14T06:49:49;4.00;99.90
8888;DHT22;4480;52.370;9.748;2023-12-14T06:52:16;4.00;99.90
8888;DHT22;4480;52.370;9.748;2023-12-14T06:54:43;4.00;99.90
8888;DHT22;4480;52.370;9.748;2023-12-14T06:57:09;4.00;99.90
8888;DHT22;4480;52.370;9.748;2023-12-14T06:59:36;4.00;99.90
8888;DHT22;4480;52.370;9.748;2023-12-14T07:02:03;4.00;99.90
8888;DHT22;4480;52.370;9.748;2023-12-14T07:04:31;4.00;99.90
8888;DHT22;4480;52.370;9.748;2023-12-14T07:06:58;4.00;99.90
8888;DHT22;4480;52.370;9.748;2023-12-14T07:09:25;4.00;99.90
8888;DHT22;4480;52.370;9.748;2023-12-14T07:11:52;4.00;99.90
8888;DHT22;4480;52.370;9.748;2023-12-14T07:14:19;4.00;99.90
8888;DHT22;4480;52.370;9.748;2023-12-14T07:16:45;4.00;99.90
8888;DHT22;4480;52.370;9.748;2023-12-14T07:19:12;4.00;99.90
8888;DHT22;4480;52.370;9.748;2023-12-14T07:21:40;4.00;99.90
8888;DHT22;4480;52.370;9.748;2023-12-14T07:24:06;4.10;99.90
8888;DHT22;4480;52.370;9.748;2023-12-14T07:26:33;4.10;99.90
8888;DHT22;4480;52.370;9.748;2023-12-14T07:29:00;4.10;99.90
8888;DHT22;4480;52.370;9.748;2023-12-14T07:31:27;4.10;99.90
8888;DHT22;4480;52.370;9.748;2023-12-14T07:33:54;4.10;99.90
8888;DHT22;4480;52.370;9.748;2023-12-14T07:36:21;4.00;99.90
8888;DHT22;4480;52.370;9.748;2023-12-14T07:38:50;4.00;99.90
8888;DHT22;4480;52.370;9.748;2023-12-14T07:41:17;4.00;99.90
8888;DHT22;4480;52.370;9.748;2023-12-14T07:43:43;4.00;99.90
8888;DHT22;4480;52.370;9.748;2023-12-14T07:46:10;4.00;99.90
8888;DHT22;4480;52.370;9.748;2023-12-14T07:48:37;4.00;99.90
8888;DHT22;4480;52.370;9.748;2023-12-14T07:51:04;4.00;99.90
8888;DHT22;4480;52.370;9.748;2023-12-14T07:53:31;4.00;99.90
8888;DHT22;4480;52.370;9.748;2023-12-14T07:55:59;4.00;99.90
8888;DHT22;4480;52.370;9.748;2023-12-14T07:58:27;4.00;99.90
8888;DHT22;4480;52.370;9.748;2023-12-14T08:00:54;4.00;99.90
8888;DHT22;4480;52.370;9.748;2023-12-14T08:03:21;4.00;99.90
8888;DHT22;4480;52.370;9.748;2023-12-14T08:05:48;4.00;99.90
8888;DHT22;4480;52.370;9.748;2023-12-14T08:08:15;4.00;99.90
8888;DHT22;4480;52.370;9.748;2023-12-14T08:10:42;4.00;99.90
8888;DHT22;4480;52.370;9.748;2023-12-14T08:13:10;4.00;99.90
8888;DHT22;4480;52.370;9.748;2023-12-14T08:15:37;4.00;99.90
8888;DHT22;4480;52.370;9.748;2023-12-14T08:18:04;3.90;99.90
8888;DHT22;4480;52.370;9.748;2023-12-14T08:20:31;3.90;99.90
8888;DHT22;4480;52.370;9.748;2023-12-14T08:22:57;3.90;99.90
8888;DHT22;4480;52.370;9.748;2023-12-14T08:25:24;3.90;99.90
8888;DHT22;4480;52.370;9.748;2023-12-14T08:27:52;3.90;99.90
8888;DHT22;4480;52.370;9.748;2023-12-14T08:30:20;3.80;99.90
8888;DHT22;4480;52.370;9.748;2023-12-14T08:32:47;3.80;99.90
8888;DHT22;4480;52.370;9.748;2023-12-14T08:35:14;3.90;99.90
8888;DHT22;4480;52.370;9.748;2023-12-14T08:37:41;3.90;99.90
8888;DHT22;4480;52.370;9.748;2023-12-14T08:40:10;3.90;99.90
8888;DHT22;4480;52.370;9.748;2023-12-14T08:42:36;3.90;99.90
8888;DHT22;4480;52.370;9.748;2023-12-14T08:45:04;3.80;99.90
8888;DHT22;4480;52.370;9.748;2023-12-14T08:47:32;3.80;99.90
8888;DHT22;4480;52.370;9.748;2023-12-14T08:49:59;3.80;99.90
8888;DHT22;4480;52.370;9.748;2023-12-14T08:52:26;3.80;99.90
8888;DHT22;4480;52.370;9.748;2023-12-14T08:54:52;3.90;99.90
8888;DHT22;4480;52.370;9.748;2023-12-14T08:57:19;3.90;99.90
8888;DHT22;4480;52.370;9.748;2023-12-14T08:59:47;3.90;99.90
8888;DHT22;4480;52.370;9.748;2023-12-14T09:02:14;3.90;99.90
8888;DHT22;4480;52.370;9.748;2023-12-14T09:04:42;3.90;99.90
8888;DHT22;4480;52.370;9.748;2023-12-14T09:07:09;4.00;99.90
8888;DHT22;4480;52.370;9.748;2023-12-14T09:09:36;4.00;99.90
8888;DHT22;4480;52.370;9.748;2023-12-14T09:12:03;3.90;99.90
8888;DHT22;4480;52.370;9.748;2023-12-14T09:14:29;4.00;99.90
8888;DHT22;4480;52.370;9.748;2023-12-14T09:16:57;4.00;99.90
8888;DHT22;4480;52.370;9.748;2023-12-14T09:19:23;4.00;99.90
8888;DHT22;4480;52.370;9.748;2023-12-14T09:21:51;4.00;99.90
8888;DHT22;4480;52.370;9.748;2023-12-14T09:24:18;4.00;99.90
8888;DHT22;4480;52.370;9.748;2023-12-14T09:26:45;4.00;99.90
8888;DHT22;4480;52.370;9.748;2023-12-14T09:29:12;4.00;99.90
8888;DHT22;4480;52.370;9.748;2023-12-14T09:31:41;4.00;99.90
8888;DHT22;4480;52.370;9.748;2023-12-14T09:34:08;4.00;99.90
8888;DHT22;4480;52.370;9.748;2023-12-14T09:36:35;4.00;99.90
8888;DHT22;4480;52.370;9.748;2023-12-14T09:39:03;4.10;99.90
8888;DHT22;4480;52.370;9.748;2023-12-14T09:41:35;4.10;99.90
8888;DHT22;4480;52.370;9.748;2023-12-14T09:44:03;4.20;99.90
8888;DHT22;4480;52.370;9.748;2023-12-14T09:46:31;4.20;99.90
8888;DHT22;4480;52.370;9.748;2023-12-14T09:49:00;4.20;99.90
8888;DHT22;4480;52.370;9.748;2023-12-14T09:51:28;4.20;99.90
8888;DHT22;4480;52.370;9.748;2023-12-14T09:53:55;4.20;99.90
8888;DHT22;4480;52.370;9.748;2023-12-14T09:56:25;4.20;99.90
8888;DHT22;4480;52.370;9.748;2023-12-14T09:58:51;4.20;99.90
8888;DHT22;4480;52.370;9.748;2023-12-14T10:01:21;4.20;99.90
8888;DHT22;4480;52.370;9.748;2023-12-14T10:03:49;4.20;99.90
8888;DHT22;4480;52.370;9.748;2023-12-14T10:06:17;4.30;99.90
8888;DHT22;4480;52.370;9.748;2023-12-14T10:08:54;4.30;99.90
8888;DHT22;4480;52.370;9.748;2023-12-14T10:11:21;4.30;99.90
8888;DHT22;4480;52.370;9.748;2023-12-14T10:13:49;4.40;99.90
8888;DHT22;4480;52.370;9.748;2023-12-14T10:16:27;4.40;99.90
8888;DHT22;4480;52.370;9.748;2023-12-14T10:18:55;4.50;99.90
8888;DHT22;4480;52.370;9.748;2023-12-14T10:21:22;4.50;99.90
8888;DHT22;4480;52.370;9.748;2023-12-14T10:23:49;4.50;99.90
8888;DHT22;4480;52.370;9.748;2023-12-14T10:26:16;4.50;99.90
8888;DHT22;4480;52.370;9.748;2023-12-14T10:28:42;4.50;99.90
8888;DHT22;4480;52.370;9.748;2023-12-14T10:31:11;4.50;99.90
8888;DHT22;4480;52.370;9.748;2023-12-14T10:33:38;4.40;99.90
8888;DHT22;4480;52.370;9.748;2023-12-14T10:36:06;4.40;99.90
8888;DHT22;4480;52.370;9.748;2023-12-14T10:38:34;4.40;99.90
8888;DHT22;4480;52.370;9.748;2023-12-14T10:41:04;4.40;99.90
8888;DHT22;4480;52.370;9.748;2023-12-14T10:43:34;4.40;99.90
8888;DHT22;4480;52.370;9.748;2023-12-14T10:46:05;4.40;99.90
8888;DHT22;4480;52.370;9.748;2023-12-14T10:48:35;4.40;99.90
8888;DHT22;4480;52.370;9.748;2023-12-14T10:51:02;4.40;99.90
8888;DHT22;4480;52.370;9.748;2023-12-14T10:53:31;4.40;99.90
8888;DHT22;4480;52.370;9.748;2023-12-14T10:55:59;4.40;99.90
8888;DHT22;4480;52.370;9.748;2023-12-14T10:58:44;4.40;99.90
8888;DHT22;4480;52.370;9.748;2023-12-14T11:01:14;4.40;99.90
8888;DHT22;4480;52.370;9.748;2023-12-14T11:03:43;4.50;99.90
8888;DHT22;4480;52.370;9.748;2023-12-14T11:06:28;4.50;99.90
8888;DHT22;4480;52.370;9.748;2023-12-14T11:08:58;4.50;99.90
8888;DHT22;4480;52.370;9.748;2023-12-14T11:11:29;4.50;99.90
8888;DHT22;4480;52.370;9.748;2023-12-14T11:13:56;4.50;99.90
8888;DHT22;4480;52.370;9.748;2023-12-14T11:16:23;4.50;99.90
8888;DHT22;4480;52.370;9.748;2023-12-14T11:21:44;4.50;99.90
8888;DHT22;4480;52.370;9.748;2023-12-14T11:24:12;4.50;99.90
8888;DHT22;4480;52.370;9.748;2023-12-14T11:26:39;4.60;99.90
8888;DHT22;4480;52.370;9.748;2023-12-14T11:29:06;4.60;99.90
8888;DHT22;4480;52.370;9.748;2023-12-14T11:31:33;4.60;99.90
8888;DHT22;4480;52.370;9.748;2023-12-14T11:34:01;4.60;99.90
8888;DHT22;4480;52.370;9.748;2023-12-14T11:36:31;4.50;99.90
8888;DHT22;4480;52.370;9.748;2023-12-14T11:38:59;4.50;99.90
8888;DHT22;4480;52.370;9.748;2023-12-14T11:41:26;4.50;99.90
8888;DHT22;4480;52.370;9.748;2023-12-14T11:43:54;4.50;99.90
8888;DHT22;4480;52.370;9.748;2023-12-14T11:46:21;4.50;99.90
8888;DHT22;4480;52.370;9.748;2023-12-14T11:48:48;4.50;99.90
8888;DHT22;4480;52.370;9.748;2023-12-14T11:51:15;4.50;99.90
8888;DHT22;4480;52.370;9.748;2023-12-14T11:53:44;4.50;99.90
8888;DHT22;4480;52.370;9.748;2023-12-14T11:56:12;4.50;99.90
8888;DHT22;4480;52.370;9.748;2023-12-14T11:58:43;4.50;99.90
8888;DHT22;4480;52.370;9.748;2023-12-14T12:01:14;4.50;99.90
8888;DHT22;4480;52.370;9.748;2023-12-14T12:03:42;4.50;99.90
8888;DHT22;4480;52.370;9.748;2023-12-14T12:06:19;4.50;99.90
8888;DHT22;4480;52.370;9.748;2023-12-14T12:08:47;4.50;99.90
8888;DHT22;4480;52.370;9.748;2023-12-14T12:11:17;4.60;99.90
8888;DHT22;4480;52.370;9.748;2023-12-14T12:13:44;4.60;99.90
8888;DHT22;4480;52.370;9.748;2023-12-14T12:16:11;4.70;99.90
8888;DHT22;4480;52.370;9.748;2023-12-14T12:18:37;4.70;99.90
8888;DHT22;4480;52.370;9.748;2023-12-14T12:21:04;4.70;99.90
8888;DHT22;4480;52.370;9.748;2023-12-14T12:23:33;4.70;99.90
8888;DHT22;4480;52.370;9.748;2023-12-14T12:26:00;4.70;99.90
8888;DHT22;4480;52.370;9.748;2023-12-14T12:28:30;4.60;99.90
8888;DHT22;4480;52.370;9.748;2023-12-14T12:30:57;4.70;99.90
8888;DHT22;4480;52.370;9.748;2023-12-14T12:33:25;4.70;99.90
8888;DHT22;4480;52.370;9.748;2023-12-14T12:35:52;4.70;99.90
8888;DHT22;4480;52.370;9.748;2023-12-14T12:38:20;4.70;99.90
8888;DHT22;4480;52.370;9.748;2023-12-14T12:40:46;4.70;99.90
8888;DHT22;4480;52.370;9.748;2023-12-14T12:43:13;4.70;99.90
8888;DHT22;4480;52.370;9.748;2023-12-14T12:45:42;4.80;99.90
8888;DHT22;4480;52.370;9.748;2023-12-14T12:48:09;4.80;99.90
8888;DHT22;4480;52.370;9.748;2023-12-14T12:50:36;4.80;99.90
8888;DHT22;4480;52.370;9.748;2023-12-14T12:53:03;4.70;99.90
8888;DHT22;4480;52.370;9.748;2023-12-14T12:55:29;4.80;99.90
8888;DHT22;4480;52.370;9.748;2023-12-14T12:57:56;4.80;99.90
8888;DHT22;4480;52.370;9.748;2023-12-14T13:00:23;4.70;99.90
8888;DHT22;4480;52.370;9.748;2023-12-14T13:02:52;4.70;99.90
8888;DHT22;4480;52.370;9.748;2023-12-14T13:05:18;4.70;99.90
8888;DHT22;4480;52.370;9.748;2023-12-14T13:07:46;4.80;99.90
8888;DHT22;4480;52.370;9.748;2023-12-14T13:10:13;4.80;99.90
8888;DHT22;4480;52.370;9.748;2023-12-14T13:12:39;4.80;99.90
8888;DHT22;4480;52.370;9.748;2023-12-14T13:15:07;4.90;99.90
8888;DHT22;4480;52.370;9.748;2023-12-14T13:17:34;4.90;99.90
8888;DHT22;4480;52.370;9.748;2023-12-14T13:20:02;4.90;99.90
8888;DHT22;4480;52.370;9.748;2023-12-14T13:22:31;5.00;99.90
8888;DHT22;4480;52.370;9.748;2023-12-14T13:24:58;5.00;99.90
8888;DHT22;4480;52.370;9.748;2023-12-14T13:27:25;5.00;99.90
8888;DHT22;4480;52.370;9.748;2023-12-14T13:29:52;5.00;99.90
8888;DHT22;4480;52.370;9.748;2023-12-14T13:32:18;5.00;99.90
8888;DHT22;4480;52.370;9.748;2023-12-14T13:34:45;5.00;99.90
8888;DHT22;4480;52.370;9.748;2023-12-14T13:37:13;5.10;99.90
8888;DHT22;4480;52.370;9.748;2023-12-14T13:39:40;5.00;99.90
8888;DHT22;4480;52.370;9.748;2023-12-14T13:42:07;5.00;99.90
8888;DHT22;4480;52.370;9.748;2023-12-14T13:44:34;5.00;99.90
8888;DHT22;4480;52.370;9.748;2023-12-14T13:47:01;5.00;99.90
8888;DHT22;4480;52.370;9.748;2023-12-14T13:49:28;5.00;99.90
8888;DHT22;4480;52.370;9.748;2023-12-14T13:51:54;5.00;99.90
8888;DHT22;4480;52.370;9.748;2023-12-14T13:54:23;5.00;99.90
8888;DHT22;4480;52.370;9.748;2023-12-14T13:56:49;5.00;99.90
8888;DHT22;4480;52.370;9.748;2023-12-14T13:59:16;5.00;99.90
8888;DHT22;4480;52.370;9.748;2023-12-14T14:01:43;5.00;99.90
8888;DHT22;4480;52.370;9.748;2023-12-14T14:04:10;5.00;99.90
8888;DHT22;4480;52.370;9.748;2023-12-14T14:06:36;5.00;99.90
8888;DHT22;4480;52.370;9.748;2023-12-14T14:09:03;5.00;99.90
8888;DHT22;4480;52.370;9.748;2023-12-14T14:11:31;5.00;99.90
8888;DHT22;4480;52.370;9.748;2023-12-14T14:14:00;5.00;99.90
8888;DHT22;4480;52.370;9.748;2023-12-14T14:16:27;5.00;99.90
8888;DHT22;4480;52.370;9.748;2023-12-14T14:18:54;5.10;99.90
8888;DHT22;4480;52.370;9.748;2023-12-14T14:21:20;5.00;99.90
8888;DHT22;4480;52.370;9.748;2023-12-14T14:23:47;5.00;99.90
8888;DHT22;4480;52.370;9.748;2023-12-14T14:26:14;5.00;99.90
8888;DHT22;4480;52.370;9.748;2023-12-14T14:28:42;5.00;99.90
8888;DHT22;4480;52.370;9.748;2023-12-14T14:31:09;5.00;99.90
8888;DHT22;4480;52.370;9.748;2023-12-14T14:33:36;5.00;99.90
8888;DHT22;4480;52.370;9.748;2023-12-14T14:36:03;5.00;99.90
8888;DHT22;4480;52.370;9.748;2023-12-14T14:38:30;4.90;99.90
8888;DHT22;4480;52.370;9.748;2023-12-14T14:40:57;4.90;99.90
8888;DHT22;4480;52.370;9.748;2023-12-14T14:43:24;4.90;99.90
8888;DHT22;4480;52.370;9.748;2023-12-14T14:45:52;4.90;99.90
8888;DHT22;4480;52.370;9.748;2023-12-14T14:48:19;4.90;99.90
8888;DHT22;4480;52.370;9.748;2023-12-14T14:50:45;5.00;99.90
8888;DHT22;4480;52.370;9.748;2023-12-14T14:53:12;4.90;99.90
8888;DHT22;4480;52.370;9.748;2023-12-14T14:55:39;4.90;99.90
8888;DHT22;4480;52.370;9.748;2023-12-14T14:58:06;4.90;99.90
8888;DHT22;4480;52.370;9.748;2023-12-14T15:00:33;4.90;99.90
8888;DHT22;4480;52.370;9.748;2023-12-14T15:03:05;4.90;99.90
8888;DHT22;4480;52.370;9.748;2023-12-14T15:05:34;4.90;99.90
8888;DHT22;4480;52.370;9.748;2023-12-14T15:08:01;4.90;99.90
8888;DHT22;4480;52.370;9.748;2023-12-14T15:10:28;4.90;99.90
8888;DHT22;4480;52.370;9.748;2023-12-14T15:12:56;4.90;99.90
8888;DHT22;4480;52.370;9.748;2023-12-14T15:15:22;4.90;99.90
8888;DHT22;4480;52.370;9.748;2023-12-14T15:17:49;4.90;99.90
8888;DHT22;4480;52.370;9.748;2023-12-14T15:20:17;4.90;99.90
8888;DHT22;4480;52.370;9.748;2023-12-14T15:22:44;4.80;99.90
8888;DHT22;4480;52.370;9.748;2023-12-14T15:25:11;4.90;99.90
8888;DHT22;4480;52.370;9.748;2023-12-14T15:27:40;4.80;99.90
8888;DHT22;4480;52.370;9.748;2023-12-14T15:30:08;4.80;99.90
8888;DHT22;4480;52.370;9.748;2023-12-14T15:32:37;4.80;99.90
8888;DHT22;4480;52.370;9.748;2023-12-14T15:35:04;4.80;99.90
8888;DHT22;4480;52.370;9.748;2023-12-14T15:37:32;4.80;99.90
8888;DHT22;4480;52.370;9.748;2023-12-14T15:39:59;4.70;99.90
8888;DHT22;4480;52.370;9.748;2023-12-14T15:42:26;4.70;99.90
8888;DHT22;4480;52.370;9.748;2023-12-14T15:44:52;4.70;99.90
8888;DHT22;4480;52.370;9.748;2023-12-14T15:47:19;4.70;99.90
8888;DHT22;4480;52.370;9.748;2023-12-14T15:49:47;4.70;99.90
8888;DHT22;4480;52.370;9.748;2023-12-14T15:52:14;4.70;99.90
8888;DHT22;4480;52.370;9.748;2023-12-14T15:54:42;4.60;99.90
8888;DHT22;4480;52.370;9.748;2023-12-14T15:57:08;4.60;99.90
8888;DHT22;4480;52.370;9.748;2023-12-14T15:59:35;4.50;99.90
8888;DHT22;4480;52.370;9.748;2023-12-14T16:02:02;4.50;99.90
8888;DHT22;4480;52.370;9.748;2023-12-14T16:04:29;4.40;99.90
8888;DHT22;4480;52.370;9.748;2023-12-14T16:06:56;4.30;99.90
8888;DHT22;4480;52.370;9.748;2023-12-14T16:09:24;4.30;99.90
8888;DHT22;4480;52.370;9.748;2023-12-14T16:11:52;4.30;99.90
8888;DHT22;4480;52.370;9.748;2023-12-14T16:14:19;4.30;99.90
8888;DHT22;4480;52.370;9.748;2023-12-14T16:16:45;4.40;99.90
8888;DHT22;4480;52.370;9.748;2023-12-14T16:19:12;4.30;99.90
8888;DHT22;4480;52.370;9.748;2023-12-14T16:21:39;4.30;99.90
8888;DHT22;4480;52.370;9.748;2023-12-14T16:24:06;4.30;99.90